RYR8072 EPPO-LGKR
Flight info
| Callsign | RYR8072 |
|---|---|
| Flight time | N/A |
| Altitude | 35000 |
| Route | XIDNA DCT MISKA L616 DESEN DCT VALPI DCT OSDUK DCT RODON/N0399F190 N732 PITAS |
| Aircraft | B738/M-SDE2E3FGHIRWXY/LB1 |
Departure
| Time | N/A |
|---|---|
| Airport | Poznań-Ławica Airport (EPPO) |
Arrival
| Time | 2026-05-07 09:34 |
|---|---|
| Airport | Corfu Ioannis Kapodistrias International Airport (LGKR) |
| Time | Latitude | Longitude | Altitude | Speed | Heading |
|---|---|---|---|---|---|
| 2026-05-07 08:52 | 43.46423 | 18.66986 | 37093 ft | 433 kts | 175° |
| 2026-05-07 08:52 | 43.43446 | 18.67645 | 37090 ft | 433 kts | 175° |
| 2026-05-07 08:53 | 43.37483 | 18.68963 | 37105 ft | 434 kts | 175° |
| 2026-05-07 08:53 | 43.31515 | 18.70278 | 37101 ft | 434 kts | 175° |
| 2026-05-07 08:54 | 43.25599 | 18.71584 | 37056 ft | 432 kts | 175° |
| 2026-05-07 08:54 | 43.22652 | 18.72243 | 37158 ft | 429 kts | 174° |
| 2026-05-07 08:54 | 43.19700 | 18.72901 | 37122 ft | 430 kts | 175° |
| 2026-05-07 08:55 | 43.13771 | 18.74190 | 37126 ft | 431 kts | 175° |
| 2026-05-07 08:55 | 43.07844 | 18.75478 | 37141 ft | 432 kts | 175° |
| 2026-05-07 08:56 | 43.01903 | 18.76774 | 37135 ft | 433 kts | 175° |
| 2026-05-07 08:56 | 42.95949 | 18.78072 | 37127 ft | 434 kts | 175° |
| 2026-05-07 08:57 | 42.89983 | 18.79371 | 37142 ft | 434 kts | 175° |
| 2026-05-07 08:57 | 42.84011 | 18.80668 | 37140 ft | 434 kts | 175° |
| 2026-05-07 08:58 | 42.78085 | 18.81953 | 37145 ft | 434 kts | 175° |
| 2026-05-07 08:58 | 42.72124 | 18.83243 | 37165 ft | 433 kts | 175° |
| 2026-05-07 08:59 | 42.66177 | 18.84527 | 37151 ft | 432 kts | 175° |
| 2026-05-07 08:59 | 42.60235 | 18.85807 | 37157 ft | 432 kts | 175° |
| 2026-05-07 09:00 | 42.54300 | 18.87083 | 37161 ft | 431 kts | 175° |
| 2026-05-07 09:00 | 42.48411 | 18.88348 | 37165 ft | 431 kts | 175° |
| 2026-05-07 09:01 | 42.42478 | 18.89619 | 37141 ft | 431 kts | 175° |
| 2026-05-07 09:01 | 42.36545 | 18.90888 | 37147 ft | 431 kts | 174° |
| 2026-05-07 09:02 | 42.30615 | 18.92153 | 37164 ft | 431 kts | 175° |
| 2026-05-07 09:02 | 42.24672 | 18.93419 | 37149 ft | 433 kts | 175° |
| 2026-05-07 09:03 | 42.18751 | 18.94678 | 37141 ft | 434 kts | 174° |
| 2026-05-07 09:03 | 42.12767 | 18.95947 | 37139 ft | 437 kts | 174° |
| 2026-05-07 09:04 | 42.06756 | 18.97221 | 37124 ft | 438 kts | 174° |
| 2026-05-07 09:04 | 42.00732 | 18.98495 | 37114 ft | 437 kts | 175° |
| 2026-05-07 09:05 | 41.94718 | 18.99765 | 37119 ft | 437 kts | 175° |
| 2026-05-07 09:05 | 41.88706 | 19.01031 | 37123 ft | 437 kts | 175° |
| 2026-05-07 09:06 | 41.82694 | 19.02295 | 37105 ft | 437 kts | 175° |
| 2026-05-07 09:06 | 41.76683 | 19.03556 | 37118 ft | 437 kts | 175° |
| 2026-05-07 09:07 | 41.70672 | 19.04815 | 37116 ft | 437 kts | 175° |
| 2026-05-07 09:07 | 41.64688 | 19.06065 | 37115 ft | 438 kts | 175° |
| 2026-05-07 09:08 | 41.58665 | 19.07322 | 37106 ft | 438 kts | 175° |
| 2026-05-07 09:08 | 41.52626 | 19.08580 | 37116 ft | 439 kts | 175° |
| 2026-05-07 09:09 | 41.46587 | 19.09856 | 37110 ft | 441 kts | 173° |
| 2026-05-07 09:09 | 41.40693 | 19.12355 | 37100 ft | 447 kts | 163° |
| 2026-05-07 09:10 | 41.34868 | 19.15282 | 37117 ft | 448 kts | 163° |
| 2026-05-07 09:10 | 41.29021 | 19.18186 | 37126 ft | 449 kts | 164° |
| 2026-05-07 09:11 | 41.23184 | 19.21041 | 37121 ft | 450 kts | 164° |
| 2026-05-07 09:11 | 41.17303 | 19.23898 | 37123 ft | 451 kts | 164° |
| 2026-05-07 09:12 | 41.11399 | 19.26760 | 37036 ft | 454 kts | 164° |
| 2026-05-07 09:12 | 41.08412 | 19.28205 | 36545 ft | 456 kts | 164° |
| 2026-05-07 09:12 | 41.05450 | 19.29640 | 35998 ft | 452 kts | 163° |
| 2026-05-07 09:13 | 41.02493 | 19.31071 | 35413 ft | 451 kts | 163° |
| 2026-05-07 09:13 | 40.99560 | 19.32489 | 34767 ft | 450 kts | 163° |
| 2026-05-07 09:13 | 40.96616 | 19.33909 | 34158 ft | 448 kts | 163° |
| 2026-05-07 09:13 | 40.93734 | 19.35299 | 33318 ft | 449 kts | 163° |
| 2026-05-07 09:14 | 40.90763 | 19.36730 | 32619 ft | 448 kts | 163° |
| 2026-05-07 09:14 | 40.87875 | 19.38120 | 31888 ft | 448 kts | 163° |
| 2026-05-07 09:14 | 40.84947 | 19.39527 | 31177 ft | 447 kts | 163° |
| 2026-05-07 09:14 | 40.82012 | 19.40937 | 30446 ft | 448 kts | 163° |
| 2026-05-07 09:15 | 40.79084 | 19.42342 | 29605 ft | 448 kts | 163° |
| 2026-05-07 09:15 | 40.76161 | 19.43744 | 28769 ft | 447 kts | 163° |
| 2026-05-07 09:15 | 40.73236 | 19.45145 | 27922 ft | 447 kts | 163° |
| 2026-05-07 09:15 | 40.70314 | 19.46544 | 27057 ft | 447 kts | 163° |
| 2026-05-07 09:16 | 40.67393 | 19.47940 | 26174 ft | 448 kts | 163° |
| 2026-05-07 09:16 | 40.64458 | 19.49342 | 25363 ft | 448 kts | 163° |
| 2026-05-07 09:16 | 40.61548 | 19.50732 | 24750 ft | 442 kts | 163° |
| 2026-05-07 09:16 | 40.58664 | 19.52108 | 24113 ft | 439 kts | 163° |
| 2026-05-07 09:17 | 40.55806 | 19.53469 | 23476 ft | 435 kts | 164° |
| 2026-05-07 09:17 | 40.52985 | 19.54810 | 22870 ft | 429 kts | 164° |
| 2026-05-07 09:17 | 40.50188 | 19.56136 | 22234 ft | 425 kts | 164° |
| 2026-05-07 09:17 | 40.47416 | 19.57449 | 21605 ft | 422 kts | 164° |
| 2026-05-07 09:18 | 40.44667 | 19.58749 | 20973 ft | 420 kts | 164° |
| 2026-05-07 09:18 | 40.41903 | 19.60053 | 20361 ft | 428 kts | 164° |
| 2026-05-07 09:18 | 40.39062 | 19.61390 | 19717 ft | 437 kts | 164° |
| 2026-05-07 09:18 | 40.36212 | 19.62735 | 19039 ft | 435 kts | 164° |
| 2026-05-07 09:19 | 40.33369 | 19.64078 | 18363 ft | 432 kts | 164° |
| 2026-05-07 09:19 | 40.30548 | 19.65411 | 17644 ft | 428 kts | 164° |
| 2026-05-07 09:19 | 40.27797 | 19.66710 | 16986 ft | 424 kts | 164° |
| 2026-05-07 09:19 | 40.25038 | 19.68011 | 16348 ft | 419 kts | 164° |
| 2026-05-07 09:20 | 40.22304 | 19.69297 | 15700 ft | 415 kts | 164° |
| 2026-05-07 09:20 | 40.19599 | 19.70568 | 15084 ft | 411 kts | 164° |
| 2026-05-07 09:20 | 40.16918 | 19.71833 | 14459 ft | 408 kts | 165° |
| 2026-05-07 09:20 | 40.14262 | 19.73078 | 13836 ft | 404 kts | 165° |
| 2026-05-07 09:21 | 40.11632 | 19.74308 | 13170 ft | 400 kts | 165° |
| 2026-05-07 09:21 | 40.09023 | 19.75526 | 12587 ft | 394 kts | 165° |
| 2026-05-07 09:21 | 40.06442 | 19.76731 | 11951 ft | 391 kts | 165° |
| 2026-05-07 09:21 | 40.03899 | 19.77919 | 11346 ft | 386 kts | 164° |
| 2026-05-07 09:22 | 40.01405 | 19.79086 | 11119 ft | 372 kts | 164° |
| 2026-05-07 09:22 | 39.99020 | 19.80202 | 11005 ft | 356 kts | 164° |
| 2026-05-07 09:22 | 39.96736 | 19.81269 | 10911 ft | 341 kts | 165° |
| 2026-05-07 09:22 | 39.94539 | 19.82293 | 10787 ft | 329 kts | 165° |
| 2026-05-07 09:23 | 39.92412 | 19.83283 | 10650 ft | 319 kts | 165° |
| 2026-05-07 09:23 | 39.90356 | 19.84239 | 10526 ft | 308 kts | 165° |
| 2026-05-07 09:23 | 39.88330 | 19.84953 | 10395 ft | 296 kts | 173° |
| 2026-05-07 09:23 | 39.86335 | 19.85397 | 10275 ft | 286 kts | 175° |
| 2026-05-07 09:24 | 39.84397 | 19.85782 | 10156 ft | 278 kts | 175° |
| 2026-05-07 09:24 | 39.82529 | 19.86156 | 9951 ft | 273 kts | 175° |
| 2026-05-07 09:24 | 39.80660 | 19.86540 | 9675 ft | 271 kts | 175° |
| 2026-05-07 09:24 | 39.78792 | 19.86934 | 9268 ft | 273 kts | 174° |
| 2026-05-07 09:25 | 39.76906 | 19.87340 | 8882 ft | 276 kts | 174° |
| 2026-05-07 09:25 | 39.75004 | 19.87755 | 8450 ft | 278 kts | 173° |
| 2026-05-07 09:25 | 39.73104 | 19.88173 | 8043 ft | 276 kts | 173° |
| 2026-05-07 09:25 | 39.71210 | 19.88593 | 7681 ft | 277 kts | 173° |
| 2026-05-07 09:26 | 39.69306 | 19.89016 | 7288 ft | 277 kts | 172° |
| 2026-05-07 09:26 | 39.67412 | 19.89437 | 6900 ft | 275 kts | 172° |
| 2026-05-07 09:26 | 39.65535 | 19.89854 | 6524 ft | 274 kts | 172° |
| 2026-05-07 09:26 | 39.63658 | 19.90270 | 6126 ft | 273 kts | 172° |
| 2026-05-07 09:27 | 39.61784 | 19.90686 | 5713 ft | 272 kts | 171° |
| 2026-05-07 09:27 | 39.59927 | 19.91146 | 5331 ft | 272 kts | 167° |
| 2026-05-07 09:27 | 39.56323 | 19.92495 | 4515 ft | 267 kts | 162° |
| 2026-05-07 09:28 | 39.54667 | 19.93526 | 4108 ft | 263 kts | 147° |
| 2026-05-07 09:28 | 39.53157 | 19.94840 | 3720 ft | 260 kts | 145° |
| 2026-05-07 09:28 | 39.51694 | 19.96144 | 3490 ft | 249 kts | 145° |
| 2026-05-07 09:28 | 39.50308 | 19.97380 | 3278 ft | 235 kts | 144° |
| 2026-05-07 09:29 | 39.49000 | 19.98551 | 3026 ft | 222 kts | 142° |
| 2026-05-07 09:29 | 39.47906 | 19.99878 | 2789 ft | 210 kts | 133° |
| 2026-05-07 09:29 | 39.46826 | 20.01007 | 2512 ft | 203 kts | 159° |
| 2026-05-07 09:29 | 39.45507 | 20.00942 | 2423 ft | 198 kts | 205° |
| 2026-05-07 09:30 | 39.44389 | 19.99897 | 2408 ft | 201 kts | 225° |
| 2026-05-07 09:30 | 39.43821 | 19.98261 | 2282 ft | 205 kts | 270° |
| 2026-05-07 09:30 | 39.44257 | 19.96550 | 2200 ft | 203 kts | 309° |
| 2026-05-07 09:30 | 39.45384 | 19.95526 | 2117 ft | 200 kts | 345° |
| 2026-05-07 09:31 | 39.46722 | 19.95235 | 2032 ft | 197 kts | 355° |
| 2026-05-07 09:31 | 39.48054 | 19.95012 | 1916 ft | 182 kts | 351° |
| 2026-05-07 09:31 | 39.49259 | 19.94615 | 1672 ft | 174 kts | 345° |
| 2026-05-07 09:31 | 39.50412 | 19.94150 | 1481 ft | 174 kts | 343° |
| 2026-05-07 09:32 | 39.51554 | 19.93654 | 1269 ft | 173 kts | 343° |
| 2026-05-07 09:32 | 39.52680 | 19.93171 | 980 ft | 167 kts | 343° |
| 2026-05-07 09:32 | 39.53767 | 19.92818 | 731 ft | 154 kts | 350° |
| 2026-05-07 09:32 | 39.54777 | 19.92573 | 617 ft | 147 kts | 352° |
| 2026-05-07 09:33 | 39.55793 | 19.92331 | 543 ft | 148 kts | 351° |
| 2026-05-07 09:33 | 39.56812 | 19.92073 | 430 ft | 150 kts | 351° |
| 2026-05-07 09:33 | 39.57491 | 19.91908 | 346 ft | 149 kts | 351° |
| 2026-05-07 09:33 | 39.58830 | 19.91566 | 121 ft | 145 kts | 351° |
| 2026-05-07 09:34 | 39.59794 | 19.91319 | 21 ft | 134 kts | 348° |
| 2026-05-07 09:34 | 39.60453 | 19.91148 | 18 ft | 40 kts | 355° |
| 2026-05-07 09:34 | 39.60573 | 19.91194 | 17 ft | 18 kts | 34° |
| 2026-05-07 09:34 | 39.60690 | 19.91234 | 17 ft | 7 kts | 46° |
| 2026-05-07 09:35 | 39.60694 | 19.91275 | 17 ft | 5 kts | 80° |
| 2026-05-07 09:35 | 39.60701 | 19.91322 | 18 ft | 5 kts | 79° |
| 2026-05-07 09:35 | 39.60705 | 19.91347 | 17 ft | 0 kts | 79° |